Time;durP1;ratioP1;P1;durP2;ratioP2;P2;SDS_P1;SDS_P2;PMS_P1;PMS_P2;Temp;Humidity;BMP_temperature;BMP_pressure;BME280_temperature;BME280_humidity;BME280_pressure;Samples;Min_cycle;Max_cycle;Signal;HPM_P1;HPM_P2
2021/01/01 00:01:42;;;;;;;25.65;11.27;;;0.50;74.30;;;;;;5013059;28;20018;-75
2021/01/01 00:04:08;;;;;;;19.10;8.02;;;0.60;73.60;;;;;;5012019;28;20041;-74
2021/01/01 00:06:36;;;;;;;16.65;8.43;;;0.50;73.40;;;;;;5013495;28;20516;-75
2021/01/01 00:09:02;;;;;;;15.23;8.07;;;0.40;73.40;;;;;;5011662;28;20088;-75
2021/01/01 00:11:28;;;;;;;16.67;8.35;;;0.40;73.40;;;;;;5011716;28;20033;-76
2021/01/01 00:13:53;;;;;;;19.90;7.85;;;0.30;73.90;;;;;;5012865;28;20029;-75
2021/01/01 00:16:19;;;;;;;20.02;9.25;;;0.20;73.80;;;;;;5012873;28;20417;-75
2021/01/01 00:18:46;;;;;;;24.75;11.20;;;0.20;73.90;;;;;;5012811;28;20038;-75
2021/01/01 00:21:12;;;;;;;21.88;10.02;;;0.50;73.90;;;;;;5012814;28;20045;-74
2021/01/01 00:23:38;;;;;;;22.02;10.65;;;0.30;72.90;;;;;;5012510;28;20054;-75
2021/01/01 00:26:10;;;;;;;24.02;10.07;;;0.10;73.40;;;;;;5012780;28;20084;-75
2021/01/01 00:28:42;;;;;;;19.52;7.75;;;0.00;73.70;;;;;;4994954;28;20332;-75
2021/01/01 00:31:13;;;;;;;20.42;8.40;;;-0.30;73.60;;;;;;4995246;28;20026;-75
2021/01/01 00:33:38;;;;;;;21.05;12.27;;;-0.60;74.80;;;;;;5010868;28;20339;-75
2021/01/01 00:36:04;;;;;;;17.30;10.70;;;-0.80;75.60;;;;;;5011963;28;20041;-75
2021/01/01 00:38:30;;;;;;;19.80;10.32;;;-0.90;75.70;;;;;;5012265;28;20037;-75
2021/01/01 00:40:56;;;;;;;14.65;8.35;;;-0.60;77.00;;;;;;5012249;28;20111;-75
2021/01/01 00:43:22;;;;;;;22.42;9.85;;;-0.30;76.70;;;;;;5012509;28;20033;-76
2021/01/01 00:45:48;;;;;;;20.88;9.30;;;-0.20;75.50;;;;;;5012337;28;20026;-75
2021/01/01 00:48:13;;;;;;;20.02;9.95;;;-0.10;75.40;;;;;;5010839;28;20500;-75
2021/01/01 00:50:39;;;;;;;13.82;7.57;;;0.00;76.00;;;;;;5012047;28;20105;-75
2021/01/01 00:53:05;;;;;;;16.73;7.25;;;-0.10;75.90;;;;;;5011155;28;20037;-75
2021/01/01 00:55:30;;;;;;;10.40;5.22;;;-0.20;76.10;;;;;;5011785;28;20559;-75
2021/01/01 00:57:56;;;;;;;11.18;5.93;;;-0.20;76.40;;;;;;5012310;28;20278;-75
2021/01/01 01:00:22;;;;;;;18.23;6.72;;;-0.10;76.30;;;;;;5010614;28;20080;-75
2021/01/01 01:02:47;;;;;;;17.35;6.60;;;0.00;76.10;;;;;;5012323;28;20472;-75
2021/01/01 01:05:13;;;;;;;12.68;6.68;;;0.00;75.50;;;;;;5012216;28;20092;-75
2021/01/01 01:07:39;;;;;;;8.60;4.68;;;0.00;75.10;;;;;;5012065;28;20124;-75
2021/01/01 01:10:05;;;;;;;8.02;4.10;;;-0.10;75.10;;;;;;5012730;28;20504;-74
2021/01/01 01:12:31;;;;;;;5.38;3.75;;;0.00;75.40;;;;;;5012347;28;20041;-76
2021/01/01 01:14:57;;;;;;;33.53;16.85;;;0.10;74.90;;;;;;5036514;23;20050;-74
2021/01/01 01:17:23;;;;;;;65.05;35.28;;;-0.10;74.30;;;;;;5010736;28;20022;-75
2021/01/01 01:19:49;;;;;;;63.00;36.50;;;-0.30;74.60;;;;;;5012009;28;20025;-73
2021/01/01 01:22:15;;;;;;;33.88;19.20;;;-0.50;74.70;;;;;;5011940;28;20022;-76
2021/01/01 01:24:41;;;;;;;19.23;10.98;;;-0.70;75.60;;;;;;5010666;28;20371;-75
2021/01/01 01:27:06;;;;;;;13.85;7.55;;;-0.80;75.90;;;;;;5010380;28;20156;-76
2021/01/01 01:29:32;;;;;;;10.95;6.15;;;-1.00;76.50;;;;;;5011962;28;20072;-75
2021/01/01 01:31:58;;;;;;;10.02;4.53;;;-1.10;77.90;;;;;;4994302;28;20037;-75
2021/01/01 01:34:23;;;;;;;8.02;4.35;;;-1.10;77.80;;;;;;5011511;28;20030;-74
2021/01/01 01:36:49;;;;;;;7.20;4.07;;;-1.20;77.70;;;;;;5027006;28;20022;-75
2021/01/01 01:39:15;;;;;;;9.75;4.80;;;-1.30;78.40;;;;;;5010250;28;20044;-75
2021/01/01 01:41:41;;;;;;;8.13;4.45;;;-1.30;78.80;;;;;;5011550;28;20026;-75
2021/01/01 01:44:07;;;;;;;7.93;5.28;;;-1.30;78.90;;;;;;5011411;28;20093;-75
2021/01/01 01:46:42;;;;;;;8.93;5.05;;;-1.20;78.10;;;;;;5010397;28;20026;-75
2021/01/01 01:49:11;;;;;;;6.22;3.90;;;-1.20;78.70;;;;;;4993356;28;20026;-74
2021/01/01 01:51:38;;;;;;;12.80;4.40;;;-1.00;78.70;;;;;;5026681;28;20512;-76
2021/01/01 01:54:05;;;;;;;7.80;4.90;;;-0.90;77.90;;;;;;5009912;28;20017;-75
2021/01/01 01:56:33;;;;;;;11.55;5.13;;;-1.10;77.20;;;;;;5011398;28;20025;-75
2021/01/01 01:59:00;;;;;;;9.13;4.82;;;-1.10;78.00;;;;;;5009944;28;20073;-75
2021/01/01 02:01:26;;;;;;;7.78;4.30;;;-1.00;77.90;;;;;;5009884;28;20058;-75
2021/01/01 02:03:54;;;;;;;10.55;4.43;;;-0.80;78.40;;;;;;4993491;28;20017;-75
2021/01/01 02:06:21;;;;;;;7.07;3.20;;;-0.80;78.80;;;;;;5011197;28;20105;-75
2021/01/01 02:08:50;;;;;;;7.65;3.33;;;-0.60;77.30;;;;;;5009680;28;20034;-75
2021/01/01 02:11:16;;;;;;;4.82;2.50;;;-0.40;76.00;;;;;;5009987;28;20482;-76
2021/01/01 02:13:45;;;;;;;7.75;4.00;;;-0.20;75.40;;;;;;5011091;28;20072;-76
2021/01/01 02:16:12;;;;;;;6.07;3.22;;;-0.20;75.80;;;;;;5010920;28;20034;-75
2021/01/01 02:18:41;;;;;;;6.18;3.53;;;0.00;77.10;;;;;;5011206;28;20022;-75
2021/01/01 02:21:07;;;;;;;7.50;4.05;;;0.10;74.40;;;;;;5009696;28;20030;-75
2021/01/01 02:23:34;;;;;;;7.88;3.67;;;0.00;74.50;;;;;;5009957;28;20084;-75
2021/01/01 02:26:00;;;;;;;5.95;2.70;;;0.00;75.40;;;;;;5009509;28;20038;-75
2021/01/01 02:28:26;;;;;;;4.68;3.25;;;0.00;74.20;;;;;;5009919;28;20032;-75
2021/01/01 02:30:52;;;;;;;3.85;2.25;;;0.00;73.60;;;;;;5009715;28;20108;-75
2021/01/01 02:33:18;;;;;;;4.68;2.47;;;0.00;73.10;;;;;;5011166;28;20033;-75
2021/01/01 02:35:44;;;;;;;4.55;2.58;;;0.30;73.50;;;;;;5010679;28;20390;-75
2021/01/01 02:38:10;;;;;;;6.43;2.80;;;0.50;73.00;;;;;;5009895;28;20022;-74
2021/01/01 02:40:35;;;;;;;4.53;2.67;;;0.60;73.30;;;;;;5009541;28;20030;-75
2021/01/01 02:43:01;;;;;;;5.80;2.88;;;0.70;73.40;;;;;;5011096;28;20022;-76
2021/01/01 02:45:27;;;;;;;7.07;2.75;;;0.70;72.70;;;;;;5009383;28;20034;-76
2021/01/01 02:47:53;;;;;;;3.75;2.38;;;0.50;72.90;;;;;;5011034;28;20030;-75
2021/01/01 02:50:18;;;;;;;4.70;2.53;;;0.60;72.70;;;;;;5010939;28;20032;-75
2021/01/01 02:52:45;;;;;;;4.88;2.67;;;0.70;73.50;;;;;;5011602;28;20104;-76
2021/01/01 02:55:11;;;;;;;15.93;3.03;;;0.70;73.20;;;;;;5026356;28;20029;-75
2021/01/01 02:57:37;;;;;;;4.88;2.08;;;0.60;73.60;;;;;;5010837;28;20425;-75
2021/01/01 03:00:05;;;;;;;8.40;2.85;;;0.60;72.90;;;;;;5010189;28;20014;-75
2021/01/01 03:02:31;;;;;;;2.63;2.05;;;0.60;72.40;;;;;;5013217;28;20025;-75
2021/01/01 03:04:57;;;;;;;4.20;1.98;;;0.60;71.90;;;;;;5013154;28;20443;-75
2021/01/01 03:07:22;;;;;;;2.75;1.65;;;0.70;71.70;;;;;;5012989;28;20116;-75
2021/01/01 03:09:48;;;;;;;3.30;1.85;;;0.80;71.30;;;;;;4996920;28;20027;-76
2021/01/01 03:12:14;;;;;;;1.95;1.45;;;0.80;70.70;;;;;;5012943;28;20355;-74
2021/01/01 03:14:39;;;;;;;4.35;2.15;;;0.60;70.70;;;;;;5014166;28;20030;-75
2021/01/01 03:17:05;;;;;;;2.67;1.77;;;0.50;71.30;;;;;;5014208;28;20025;-75
2021/01/01 03:19:31;;;;;;;4.78;1.88;;;0.40;71.40;;;;;;5014442;28;20026;-75
2021/01/01 03:21:56;;;;;;;2.92;1.73;;;0.50;71.60;;;;;;5014040;28;20073;-74
2021/01/01 03:24:22;;;;;;;2.03;1.27;;;0.50;71.20;;;;;;5014011;28;20022;-75
2021/01/01 03:26:48;;;;;;;3.35;1.65;;;0.50;71.90;;;;;;5013936;28;20060;-75
2021/01/01 03:29:13;;;;;;;3.67;2.03;;;0.80;71.90;;;;;;5012840;28;20387;-75
2021/01/01 03:31:39;;;;;;;5.95;1.70;;;0.90;71.40;;;;;;5012662;28;20077;-76
2021/01/01 03:34:05;;;;;;;4.28;2.05;;;0.80;72.00;;;;;;5012487;28;20134;-75
2021/01/01 03:36:31;;;;;;;2.72;1.38;;;0.80;71.60;;;;;;5012646;28;20429;-75
2021/01/01 03:38:56;;;;;;;5.80;1.63;;;0.70;70.50;;;;;;5012455;28;20106;-75
2021/01/01 03:41:22;;;;;;;2.63;1.35;;;0.80;70.30;;;;;;5013776;28;20021;-74
2021/01/01 03:43:48;;;;;;;2.78;1.60;;;0.70;69.30;;;;;;5013478;28;20104;-75
2021/01/01 03:46:14;;;;;;;3.33;1.83;;;0.60;69.60;;;;;;5013693;28;20101;-75
2021/01/01 03:48:40;;;;;;;2.03;1.42;;;0.60;69.60;;;;;;5013515;28;20385;-75
2021/01/01 03:51:05;;;;;;;3.20;1.42;;;0.70;69.90;;;;;;4996120;28;20032;-75
2021/01/01 03:53:31;;;;;;;4.22;2.75;;;1.00;69.40;;;;;;5012168;28;20032;-75
2021/01/01 03:55:57;;;;;;;6.85;1.38;;;1.10;68.30;;;;;;4995809;28;20084;-76
2021/01/01 03:58:23;;;;;;;2.75;1.63;;;1.20;68.00;;;;;;5012064;28;20026;-76
2021/01/01 04:00:48;;;;;;;1.55;1.05;;;1.50;67.50;;;;;;5012165;28;20029;-75
2021/01/01 04:03:14;;;;;;;2.28;1.65;;;1.50;67.40;;;;;;5013293;28;20026;-75
2021/01/01 04:05:40;;;;;;;6.30;1.67;;;1.50;67.60;;;;;;5013818;28;20029;-75
2021/01/01 04:08:07;;;;;;;6.45;1.80;;;1.50;67.40;;;;;;5013153;28;20053;-76
2021/01/01 04:10:32;;;;;;;5.78;1.77;;;1.30;68.00;;;;;;5013200;28;20026;-76
2021/01/01 04:12:58;;;;;;;4.03;2.38;;;1.00;69.20;;;;;;5013311;28;20064;-75
2021/01/01 04:15:24;;;;;;;4.88;2.28;;;0.80;70.20;;;;;;5011369;28;20041;-75
2021/01/01 04:17:49;;;;;;;3.53;2.00;;;0.90;70.50;;;;;;5011973;28;20021;-76
2021/01/01 04:20:15;;;;;;;4.57;2.72;;;0.90;70.60;;;;;;5013038;28;20033;-76
2021/01/01 04:22:41;;;;;;;3.03;2.05;;;0.90;72.10;;;;;;5011674;28;20481;-76
2021/01/01 04:25:07;;;;;;;5.25;2.60;;;1.00;71.50;;;;;;5012688;28;20249;-75
2021/01/01 04:27:33;;;;;;;2.40;1.75;;;1.20;72.00;;;;;;5011873;28;20041;-75
2021/01/01 04:29:59;;;;;;;4.45;1.75;;;1.20;70.90;;;;;;5012729;28;20029;-75
2021/01/01 04:32:24;;;;;;;21.98;3.22;;;1.00;70.10;;;;;;5011751;28;20026;-76
2021/01/01 04:34:50;;;;;;;6.40;2.42;;;1.00;70.90;;;;;;5012464;28;20026;-75
2021/01/01 04:37:16;;;;;;;2.45;1.95;;;1.00;71.50;;;;;;5012900;28;20497;-76
2021/01/01 04:39:41;;;;;;;3.55;2.22;;;0.90;71.60;;;;;;5011994;28;20390;-76
2021/01/01 04:42:08;;;;;;;4.28;2.35;;;0.90;72.90;;;;;;5013446;28;20080;-75
2021/01/01 04:44:34;;;;;;;9.07;3.15;;;1.00;73.90;;;;;;5011765;28;20114;-75
2021/01/01 04:47:04;;;;;;;18.30;3.53;;;1.20;74.10;;;;;;5011969;28;20104;-76
2021/01/01 04:49:30;;;;;;;6.50;2.97;;;1.30;73.30;;;;;;5013135;28;20136;-79
2021/01/01 04:52:02;;;;;;;15.80;3.85;;;1.30;72.60;;;;;;5011070;28;20561;-75
2021/01/01 04:54:32;;;;;;;13.52;3.78;;;1.30;72.40;;;;;;5011123;28;20103;-75
2021/01/01 04:56:57;;;;;;;18.13;3.45;;;1.40;72.30;;;;;;5012210;28;20073;-75
2021/01/01 04:59:23;;;;;;;9.40;3.28;;;1.10;72.80;;;;;;5011353;28;20488;-75
2021/01/01 05:01:49;;;;;;;6.88;3.40;;;1.00;73.70;;;;;;5010726;28;20131;-75
2021/01/01 05:04:15;;;;;;;9.65;3.75;;;0.90;74.70;;;;;;5012258;28;20052;-75
2021/01/01 05:06:44;;;;;;;6.35;3.33;;;1.00;75.10;;;;;;5012041;28;20053;-75
2021/01/01 05:09:13;;;;;;;5.72;3.03;;;0.80;75.30;;;;;;5012335;28;20018;-75
2021/01/01 05:11:40;;;;;;;4.90;3.00;;;0.50;76.10;;;;;;5010792;28;20449;-76
2021/01/01 05:14:07;;;;;;;5.03;3.10;;;0.50;76.30;;;;;;5012174;28;20030;-74
2021/01/01 05:16:34;;;;;;;4.20;2.95;;;0.20;76.50;;;;;;5010534;28;20033;-75
2021/01/01 05:19:12;;;;;;;6.30;3.13;;;0.00;76.50;;;;;;4994484;28;20387;-75
2021/01/01 05:21:38;;;;;;;5.82;2.42;;;-0.20;76.90;;;;;;4994149;28;20022;-75
2021/01/01 05:24:06;;;;;;;6.25;3.00;;;-0.60;78.20;;;;;;5011679;28;20076;-75
2021/01/01 05:26:32;;;;;;;4.82;3.10;;;-0.60;81.80;;;;;;5010526;28;20030;-75
2021/01/01 05:29:10;;;;;;;9.68;3.25;;;-0.30;81.20;;;;;;4994183;28;20076;-74
2021/01/01 05:31:40;;;;;;;5.13;3.20;;;-0.20;79.60;;;;;;5010534;28;20030;-74
2021/01/01 05:34:13;;;;;;;4.70;2.85;;;0.00;79.80;;;;;;5011743;28;20022;-74
2021/01/01 05:36:47;;;;;;;6.95;3.75;;;0.30;79.00;;;;;;5010103;28;20022;-75
2021/01/01 05:39:12;;;;;;;6.85;3.33;;;0.40;78.10;;;;;;5010456;28;20114;-75
2021/01/01 05:41:43;;;;;;;5.25;2.90;;;0.40;77.50;;;;;;5010273;28;20109;-75
2021/01/01 05:44:16;;;;;;;5.95;2.60;;;0.30;76.60;;;;;;4993843;28;20064;-75
2021/01/01 05:46:57;;;;;;;4.30;2.63;;;0.40;76.80;;;;;;5010295;28;20022;-75
2021/01/01 05:49:25;;;;;;;11.00;3.10;;;0.40;76.10;;;;;;5010098;28;20022;-75
2021/01/01 05:52:03;;;;;;;5.38;3.03;;;0.20;76.70;;;;;;5010252;28;20371;-75
2021/01/01 05:54:29;;;;;;;3.95;2.97;;;0.20;76.40;;;;;;5010099;28;20014;-75
2021/01/01 05:56:55;;;;;;;6.95;3.70;;;0.20;76.20;;;;;;5010303;28;20389;-75
2021/01/01 05:59:25;;;;;;;6.10;3.60;;;0.10;76.40;;;;;;5011362;28;20386;-75
2021/01/01 06:01:56;;;;;;;5.38;3.40;;;-0.10;77.00;;;;;;5011231;28;20052;-75
2021/01/01 06:04:26;;;;;;;4.50;3.05;;;0.00;78.00;;;;;;5009767;28;20022;-75
2021/01/01 06:06:53;;;;;;;3.50;2.27;;;0.10;77.40;;;;;;5010217;28;20026;-75
2021/01/01 06:09:20;;;;;;;8.82;3.60;;;-0.10;76.80;;;;;;5009786;28;20018;-75
2021/01/01 06:12:20;;;;;;;5.93;3.28;;;-0.10;78.20;;;;;;5010154;28;20402;-74
2021/01/01 06:14:46;;;;;;;6.45;3.83;;;0.00;78.00;;;;;;5010619;28;20033;-75
2021/01/01 06:17:11;;;;;;;8.63;3.75;;;-0.10;78.20;;;;;;5010251;28;20014;-74
2021/01/01 06:19:52;;;;;;;6.68;3.83;;;0.00;78.50;;;;;;5009698;28;20032;-75
2021/01/01 06:22:25;;;;;;;4.22;2.80;;;-0.10;78.30;;;;;;5010105;28;20033;-74
2021/01/01 06:24:56;;;;;;;8.98;4.13;;;-0.30;78.50;;;;;;5009550;28;20081;-75
2021/01/01 06:27:24;;;;;;;5.18;2.90;;;-0.30;78.20;;;;;;5010071;28;20072;-75
2021/01/01 06:30:09;;;;;;;4.85;2.90;;;-0.40;78.70;;;;;;4993504;28;20022;-75
2021/01/01 06:32:35;;;;;;;5.40;2.90;;;-0.60;78.40;;;;;;5011484;28;20029;-75
2021/01/01 06:35:15;;;;;;;5.43;2.88;;;-0.60;78.40;;;;;;5013253;28;20450;-75
2021/01/01 06:37:43;;;;;;;4.80;3.25;;;-0.60;77.90;;;;;;5015365;28;20424;-75
2021/01/01 06:40:20;;;;;;;4.82;3.10;;;-0.80;78.80;;;;;;5014973;28;20519;-75
2021/01/01 06:42:50;;;;;;;6.68;3.17;;;-0.80;79.60;;;;;;5015171;28;20022;-74
2021/01/01 06:45:36;;;;;;;4.32;2.85;;;-0.80;79.60;;;;;;5014608;28;20022;-75
2021/01/01 06:48:13;;;;;;;4.10;3.08;;;-0.80;78.90;;;;;;5013830;28;20371;-75
2021/01/01 06:50:44;;;;;;;6.43;3.10;;;-0.50;79.10;;;;;;5013437;28;20393;-74
2021/01/01 06:53:17;;;;;;;19.00;4.00;;;-0.40;78.10;;;;;;5013763;28;20024;-75
2021/01/01 06:55:47;;;;;;;7.03;4.32;;;-0.20;77.80;;;;;;5013070;28;20033;-75
2021/01/01 06:58:15;;;;;;;10.13;5.10;;;-0.30;77.20;;;;;;5014795;28;20431;-74
2021/01/01 07:00:49;;;;;;;7.05;3.72;;;-0.10;77.80;;;;;;5014493;28;20029;-75
2021/01/01 07:03:28;;;;;;;18.52;4.35;;;0.10;77.20;;;;;;5013416;28;20026;-74
2021/01/01 07:06:17;;;;;;;4.50;2.95;;;0.10;77.00;;;;;;4996628;28;20029;-74
2021/01/01 07:08:43;;;;;;;4.63;2.92;;;-0.10;76.00;;;;;;5013976;28;20430;-74
2021/01/01 07:11:09;;;;;;;4.97;3.50;;;-0.10;77.00;;;;;;5014294;28;20061;-75
2021/01/01 07:13:44;;;;;;;7.03;3.28;;;0.00;76.70;;;;;;4996948;28;20079;-74
2021/01/01 07:16:11;;;;;;;9.77;5.95;;;0.20;76.40;;;;;;5025873;22;20099;-74
2021/01/01 07:18:37;;;;;;;7.38;4.18;;;0.20;76.20;;;;;;5012852;28;20026;-74
2021/01/01 07:21:04;;;;;;;13.85;4.65;;;0.30;75.90;;;;;;5013953;28;20105;-74
2021/01/01 07:23:30;;;;;;;16.60;3.75;;;0.10;75.30;;;;;;5014211;28;20121;-73
2021/01/01 07:25:57;;;;;;;11.13;3.70;;;0.10;75.50;;;;;;5014050;28;20034;-74
2021/01/01 07:28:24;;;;;;;9.45;3.33;;;0.20;74.80;;;;;;4996523;28;20030;-74
2021/01/01 07:30:50;;;;;;;13.68;4.20;;;0.30;75.20;;;;;;4996519;28;20041;-73
2021/01/01 07:33:25;;;;;;;7.13;3.45;;;0.30;75.50;;;;;;5012228;28;20118;-74
2021/01/01 07:35:51;;;;;;;10.65;3.60;;;0.20;74.30;;;;;;5012402;28;20097;-74
2021/01/01 07:38:21;;;;;;;7.45;4.32;;;0.20;74.70;;;;;;5013927;28;20052;-74
2021/01/01 07:40:48;;;;;;;18.98;8.38;;;0.00;74.30;;;;;;5012589;28;20026;-74
2021/01/01 07:43:13;;;;;;;30.67;12.32;;;-0.50;74.90;;;;;;5013742;28;20026;-74
2021/01/01 07:45:40;;;;;;;14.55;6.28;;;-0.70;76.10;;;;;;5011659;28;20517;-74
2021/01/01 07:48:06;;;;;;;18.02;7.68;;;-0.70;77.30;;;;;;5013581;28;20037;-74
2021/01/01 07:50:33;;;;;;;14.93;5.28;;;-0.60;77.80;;;;;;5012364;28;20044;-74
2021/01/01 07:53:06;;;;;;;12.02;4.93;;;-0.50;77.70;;;;;;4995754;28;20313;-74
2021/01/01 07:55:34;;;;;;;23.30;5.20;;;-0.30;77.60;;;;;;5012344;28;20061;-74
2021/01/01 07:58:01;;;;;;;11.63;4.88;;;-0.30;76.60;;;;;;5013256;28;20029;-74
2021/01/01 08:00:30;;;;;;;13.85;4.97;;;-0.40;77.00;;;;;;5011965;28;20050;-74
2021/01/01 08:02:57;;;;;;;6.28;3.33;;;-0.40;76.90;;;;;;5011823;28;20366;-74
2021/01/01 08:05:23;;;;;;;6.20;3.35;;;-0.60;77.30;;;;;;5013298;28;20110;-74
2021/01/01 08:07:49;;;;;;;9.45;3.38;;;-0.70;77.00;;;;;;5013679;28;20030;-74
2021/01/01 08:10:14;;;;;;;3.85;2.90;;;-0.70;77.30;;;;;;5013194;28;20053;-74
2021/01/01 08:12:49;;;;;;;5.20;3.03;;;-0.80;76.70;;;;;;4995736;28;20026;-74
2021/01/01 08:15:31;;;;;;;16.02;3.17;;;-1.00;77.50;;;;;;5012844;28;20037;-74
2021/01/01 08:18:07;;;;;;;4.55;3.03;;;-0.70;77.90;;;;;;5011949;28;20029;-74
2021/01/01 08:20:33;;;;;;;15.48;4.25;;;-0.60;78.30;;;;;;5011959;28;20030;-74
2021/01/01 08:23:04;;;;;;;5.82;3.55;;;-0.60;77.50;;;;;;5013608;28;20022;-74
2021/01/01 08:25:31;;;;;;;8.93;4.07;;;-0.50;77.90;;;;;;5013368;28;20037;-74
2021/01/01 08:27:58;;;;;;;27.98;4.55;;;-0.30;77.90;;;;;;5013646;28;20105;-74
2021/01/01 08:30:24;;;;;;;25.50;7.35;;;-0.20;77.70;;;;;;5013359;28;20022;-74
2021/01/01 08:32:51;;;;;;;10.60;3.75;;;0.00;76.90;;;;;;5013230;28;20057;-74
2021/01/01 08:35:17;;;;;;;15.40;3.92;;;0.30;76.20;;;;;;5012459;28;20489;-74
2021/01/01 08:37:42;;;;;;;23.85;3.92;;;0.70;75.40;;;;;;5011833;28;20101;-74
2021/01/01 08:40:10;;;;;;;19.48;5.50;;;0.80;74.20;;;;;;5011328;28;20034;-74
2021/01/01 08:42:38;;;;;;;56.83;13.57;;;1.00;74.00;;;;;;5011496;28;20018;-74
2021/01/01 08:45:10;;;;;;;38.85;12.00;;;1.10;73.40;;;;;;5011019;28;20022;-74
2021/01/01 08:47:36;;;;;;;38.25;9.10;;;1.00;73.80;;;;;;5011244;28;20153;-74
2021/01/01 08:50:03;;;;;;;29.88;8.52;;;1.10;74.00;;;;;;5012252;28;20473;-74
2021/01/01 08:52:31;;;;;;;30.75;7.95;;;1.20;73.90;;;;;;5012602;28;20606;-74
2021/01/01 08:54:57;;;;;;;29.40;7.50;;;1.30;74.10;;;;;;5011974;28;20363;-74
2021/01/01 08:57:29;;;;;;;31.45;7.25;;;1.60;73.20;;;;;;5010452;28;20067;-74
2021/01/01 08:59:59;;;;;;;14.32;5.07;;;1.80;72.30;;;;;;5010223;28;20021;-74
2021/01/01 09:02:27;;;;;;;19.80;3.58;;;2.00;71.60;;;;;;5012290;28;20065;-74
2021/01/01 09:04:55;;;;;;;23.73;3.95;;;2.10;70.90;;;;;;5010781;28;20040;-74
2021/01/01 09:07:21;;;;;;;12.85;4.05;;;2.10;70.10;;;;;;5012030;28;20083;-74
2021/01/01 09:09:47;;;;;;;19.90;4.90;;;2.10;69.40;;;;;;5012030;28;20472;-74
2021/01/01 09:12:23;;;;;;;34.70;8.65;;;2.10;69.30;;;;;;5015742;28;20052;-74
2021/01/01 09:14:50;;;;;;;34.78;11.02;;;2.20;69.30;;;;;;5030009;28;20095;-74
2021/01/01 09:17:18;;;;;;;26.52;7.47;;;2.30;69.20;;;;;;5030232;28;20216;-74
2021/01/01 09:19:43;;;;;;;14.13;5.00;;;2.10;69.10;;;;;;5030535;28;20018;-74
2021/01/01 09:22:16;;;;;;;12.82;3.88;;;2.00;69.40;;;;;;5031205;28;20385;-74
2021/01/01 09:24:43;;;;;;;15.32;3.40;;;1.90;69.50;;;;;;5030009;28;20548;-74
2021/01/01 09:27:09;;;;;;;10.30;3.90;;;2.00;69.80;;;;;;5030078;28;20025;-74
2021/01/01 09:29:35;;;;;;;13.30;4.18;;;2.10;70.50;;;;;;5025389;28;20509;-74
2021/01/01 09:32:04;;;;;;;20.85;5.22;;;2.10;70.60;;;;;;5009521;28;20112;-74
2021/01/01 09:34:30;;;;;;;22.00;3.97;;;2.10;70.30;;;;;;5009468;28;20109;-74
2021/01/01 09:36:56;;;;;;;17.75;4.47;;;2.10;70.10;;;;;;5011102;28;20145;-74
2021/01/01 09:39:22;;;;;;;7.50;3.72;;;2.10;71.50;;;;;;5010746;28;20508;-74
2021/01/01 09:41:48;;;;;;;17.33;4.78;;;2.20;70.30;;;;;;5011037;28;20022;-74
2021/01/01 09:44:14;;;;;;;15.27;5.40;;;2.30;69.60;;;;;;5009511;28;20359;-74
2021/01/01 09:46:43;;;;;;;34.53;7.78;;;2.40;69.20;;;;;;5011062;28;20033;-74
2021/01/01 09:49:10;;;;;;;23.92;7.03;;;2.60;68.30;;;;;;5010772;28;20026;-74
2021/01/01 09:51:36;;;;;;;62.90;8.63;;;2.80;68.30;;;;;;5010818;28;20259;-75
2021/01/01 09:54:02;;;;;;;19.23;4.75;;;2.90;67.70;;;;;;5010577;28;20030;-74
2021/01/01 09:56:35;;;;;;;39.60;8.00;;;3.20;66.60;;;;;;5009992;28;20024;-74
2021/01/01 09:59:01;;;;;;;18.50;5.10;;;3.40;66.00;;;;;;5010179;28;20022;-74
2021/01/01 10:01:30;;;;;;;59.30;6.72;;;3.50;65.40;;;;;;5009719;28;20030;-74
2021/01/01 10:03:56;;;;;;;23.90;5.30;;;3.40;65.20;;;;;;5011042;28;20108;-74
2021/01/01 10:06:22;;;;;;;34.67;4.75;;;3.30;65.20;;;;;;5008641;28;20026;-74
2021/01/01 10:08:48;;;;;;;37.38;5.82;;;3.40;65.20;;;;;;5009108;28;20059;-74
2021/01/01 10:11:15;;;;;;;74.38;6.45;;;3.60;64.30;;;;;;5010151;28;20029;-74
2021/01/01 10:13:42;;;;;;;108.82;15.60;;;3.90;63.60;;;;;;5009458;28;20477;-74
2021/01/01 10:16:09;;;;;;;72.70;18.75;;;3.90;63.00;;;;;;4992764;28;20393;-74
2021/01/01 10:18:35;;;;;;;78.10;19.90;;;3.80;63.00;;;;;;5009631;28;20026;-74
2021/01/01 10:21:02;;;;;;;98.45;16.30;;;3.80;62.80;;;;;;5008631;28;20113;-74
2021/01/01 10:23:28;;;;;;;54.97;9.48;;;4.00;63.60;;;;;;5009174;28;20033;-74
2021/01/01 10:25:54;;;;;;;54.95;9.85;;;3.90;63.80;;;;;;5010681;28;20026;-74
2021/01/01 10:28:20;;;;;;;31.83;8.57;;;4.00;64.20;;;;;;5010727;28;20060;-74
2021/01/01 10:30:46;;;;;;;26.65;7.53;;;4.00;64.40;;;;;;5010904;28;20398;-74
2021/01/01 10:33:13;;;;;;;17.60;5.80;;;4.20;64.50;;;;;;5009243;28;20030;-74
2021/01/01 10:35:38;;;;;;;30.60;4.88;;;4.70;64.90;;;;;;5010565;28;20089;-74
2021/01/01 10:38:04;;;;;;;36.13;5.32;;;5.60;64.20;;;;;;4992986;28;20113;-74
2021/01/01 10:40:30;;;;;;;61.35;6.82;;;6.70;61.40;;;;;;5010873;28;20022;-74
2021/01/01 10:42:57;;;;;;;38.88;5.25;;;7.30;59.10;;;;;;5010846;28;20025;-74
2021/01/01 10:45:23;;;;;;;40.20;6.28;;;7.30;58.50;;;;;;5009290;28;20425;-74
2021/01/01 10:47:49;;;;;;;32.50;5.50;;;7.60;58.20;;;;;;5009657;28;20026;-74
2021/01/01 10:50:14;;;;;;;15.15;5.10;;;7.70;57.70;;;;;;5010427;28;20018;-75
2021/01/01 10:52:40;;;;;;;13.95;5.28;;;7.70;57.50;;;;;;5010684;28;20061;-74
2021/01/01 10:55:07;;;;;;;26.77;5.70;;;6.90;58.00;;;;;;5010193;28;20026;-74
2021/01/01 10:57:33;;;;;;;16.25;5.05;;;6.90;58.70;;;;;;5009726;28;20137;-74
2021/01/01 10:59:58;;;;;;;44.88;6.65;;;6.50;58.70;;;;;;5020245;28;20292;-74
2021/01/01 11:02:24;;;;;;;55.42;6.68;;;6.50;60.50;;;;;;5030132;28;20049;-75
2021/01/01 11:04:50;;;;;;;37.63;6.30;;;6.40;61.60;;;;;;5029273;28;20029;-75
2021/01/01 11:07:15;;;;;;;33.13;5.80;;;6.40;61.20;;;;;;5029925;28;20385;-75
2021/01/01 11:09:41;;;;;;;36.35;5.90;;;6.40;61.40;;;;;;5029851;28;20053;-74
2021/01/01 11:12:08;;;;;;;36.10;5.90;;;6.80;61.20;;;;;;5029670;28;20060;-75
2021/01/01 12:23:46;;;;;;;4.38;2.88;;;6.40;74.50;;;;;;5032064;28;20032;-73
2021/01/01 12:26:12;;;;;;;5.25;2.75;;;6.10;78.10;;;;;;5032076;28;20022;-74
2021/01/01 12:28:38;;;;;;;5.78;3.35;;;5.70;79.40;;;;;;5015396;28;20402;-74
2021/01/01 12:31:05;;;;;;;6.50;3.42;;;5.60;81.20;;;;;;5011947;28;20509;-74
2021/01/01 12:33:32;;;;;;;5.68;3.80;;;5.50;81.90;;;;;;5009698;28;20022;-74
2021/01/01 12:35:58;;;;;;;4.15;3.40;;;5.60;82.20;;;;;;5011943;28;20028;-74
2021/01/01 12:38:23;;;;;;;5.18;3.20;;;5.50;81.00;;;;;;5010787;28;20538;-74
2021/01/01 12:40:49;;;;;;;3.75;3.03;;;5.60;81.80;;;;;;5010260;28;20029;-74
2021/01/01 12:43:15;;;;;;;4.68;3.17;;;5.70;81.80;;;;;;5011266;28;20381;-74
2021/01/01 12:45:40;;;;;;;4.25;2.85;;;5.50;81.40;;;;;;5009995;28;20034;-74
2021/01/01 12:48:07;;;;;;;4.80;3.13;;;5.30;82.80;;;;;;5011894;28;20139;-74
2021/01/01 12:50:32;;;;;;;4.40;3.78;;;5.20;83.20;;;;;;5011612;28;20068;-74
2021/01/01 12:52:59;;;;;;;10.55;4.30;;;5.20;84.40;;;;;;5010771;28;20062;-74
2021/01/01 12:55:26;;;;;;;5.95;3.50;;;5.40;83.20;;;;;;5010254;28;20018;-74
2021/01/01 12:57:52;;;;;;;10.57;5.30;;;5.20;83.80;;;;;;5010698;28;20100;-74
2021/01/01 13:00:20;;;;;;;8.68;4.40;;;5.20;84.50;;;;;;5011500;28;20541;-74
2021/01/01 13:02:46;;;;;;;7.75;4.93;;;5.40;83.50;;;;;;5011506;28;20050;-74
2021/01/01 13:05:12;;;;;;;6.70;4.32;;;5.50;84.50;;;;;;5011592;28;20426;-74
2021/01/01 13:07:38;;;;;;;6.93;4.18;;;6.20;84.00;;;;;;5020567;28;20083;-74
2021/01/01 13:10:07;;;;;;;4.78;3.05;;;7.50;79.70;;;;;;5008707;28;20490;-74
2021/01/01 13:12:33;;;;;;;4.28;3.35;;;9.00;73.00;;;;;;5009911;28;20034;-74
2021/01/01 13:14:59;;;;;;;7.93;3.60;;;9.90;65.90;;;;;;4993766;28;20034;-74
2021/01/01 13:17:26;;;;;;;5.22;3.63;;;10.60;62.70;;;;;;4993713;28;20508;-74
2021/01/01 13:19:52;;;;;;;5.95;3.88;;;11.20;60.10;;;;;;5010111;28;20026;-74
2021/01/01 13:22:18;;;;;;;5.78;4.00;;;11.70;58.60;;;;;;5011576;28;20101;-74
2021/01/01 13:24:44;;;;;;;6.15;3.85;;;11.90;58.10;;;;;;5010201;28;20076;-74
2021/01/01 13:27:09;;;;;;;7.80;3.53;;;11.90;57.40;;;;;;5010865;28;20025;-74
2021/01/01 13:29:35;;;;;;;5.43;3.53;;;12.30;56.80;;;;;;5011242;28;20022;-74
2021/01/01 13:32:01;;;;;;;5.82;3.97;;;12.70;55.10;;;;;;4993517;28;20025;-74
2021/01/01 13:34:27;;;;;;;4.93;3.53;;;12.40;54.40;;;;;;5009772;28;20030;-74
2021/01/01 13:36:54;;;;;;;8.32;4.90;;;11.70;55.20;;;;;;5011373;28;20026;-74
2021/01/01 13:39:20;;;;;;;8.65;4.88;;;11.30;56.60;;;;;;5010436;28;20029;-74
2021/01/01 13:41:46;;;;;;;9.35;4.70;;;10.90;56.60;;;;;;5010104;28;20026;-74
2021/01/01 13:44:12;;;;;;;6.20;4.10;;;10.10;58.30;;;;;;5011155;28;20018;-74
2021/01/01 13:46:37;;;;;;;7.38;4.03;;;9.20;60.90;;;;;;5011944;28;20029;-74
2021/01/01 13:49:05;;;;;;;8.90;4.70;;;8.40;63.50;;;;;;5010300;28;20022;-75
2021/01/01 13:51:35;;;;;;;13.35;5.22;;;8.30;64.60;;;;;;5011573;28;20021;-74
2021/01/01 13:54:02;;;;;;;8.50;4.72;;;7.90;65.20;;;;;;5011145;28;20038;-74
2021/01/01 13:56:28;;;;;;;6.10;4.28;;;7.60;66.80;;;;;;5009973;28;20026;-74
2021/01/01 13:58:54;;;;;;;9.68;4.72;;;7.40;67.30;;;;;;5011636;28;20456;-74